CheckWX is a tool to help pilots better visualize weather data.  It is not intended as a substitute for an official pre-flight weather briefing.

00:34:50 UTC

LWOH METAR
Ohrid St. Paul the Apostle Airport
Ohrid, Macedonia
Current

5 hours ago

LWOH 222000Z 30001KT CAVOK 08/M04 Q1024
Observed
Mar-22 @ 20:00 UTC
Wind
  • 300° at 1 KTS
Visibility
10,000+ meters
Flight Rules
VFR
Cloud Levels
  • Clear skies
Temperature
C / 46°F
Dewpoint
-4°C / 25°F
Humidity
43%
Altimeter
30.24" Hg
Pressure
1023.92 hPa
Previous

5 hours ago

LWOH 221930Z 00000KT CAVOK 08/M05 Q1024
Observed
Mar-22 @ 19:30 UTC
Visibility
10,000+ meters
Flight Rules
VFR
Cloud Levels
  • Clear skies
Temperature
C / 46°F
Dewpoint
-5°C / 23°F
Humidity
40%
Altimeter
30.24" Hg
Pressure
1023.92 hPa
Previous

6 hours ago

LWOH 221900Z 09001KT CAVOK 09/M05 Q1024
Observed
Mar-22 @ 19:00 UTC
Wind
  • 090° at 1 KTS
Visibility
10,000+ meters
Flight Rules
VFR
Cloud Levels
  • Clear skies
Temperature
C / 48°F
Dewpoint
-5°C / 23°F
Humidity
37%
Altimeter
30.24" Hg
Pressure
1023.92 hPa